Rio Vista Municipal (O88)
Rio Vista, CA
Field Elevation: 22
Lat: 38°11.60N  Long: 121°42.22W
CTAF/Unicom Freq: 122.7250
   
     For Weather-by-Phone, call (707) 374-5396
Weather Advisories
2017-05-28   01:00 Z
Altimeter 30.03" Hg
Wind 230° @ 16 KT
Gusts 20 KT
Visibility 10 SM
Ceiling CLR
Temperature 22° C (72° F)
Dewpoint 11° C (52° F)
Relative Humidity 50%
Density Altitude --
Condensation Altitude 5,600 feet
Wind and Runways
Indicated Runway = 25
Headwind = 15 kt
Crosswind = 6 kt
History
 
 
 
More Info
All DigiWx sites map
NOAA Forecast
 
Airport IQ 5010
(DUC) Stack Farm
(CA37) Dominican
 
about DigiWx
 
FAA Disclaimer: The data displayed is for advisory purposes only and is not to be used for flight planning or operations. For official data, please call (707) 374-5396 to hear the current automated AWOS voice message.
  METAR O88 280100Z AUTO 23016G20KT VIS 10 SM CLR 22/11 A3003